createdAt,value
2022-09-13T00:03:16.921Z,59.83
2022-09-13T00:15:17.391Z,58.80
2022-09-13T00:27:17.852Z,67.28
2022-09-13T00:39:18.293Z,60.25
2022-09-13T00:51:18.745Z,60.11
2022-09-13T01:03:19.186Z,58.54
2022-09-13T01:15:19.684Z,58.69
2022-09-13T01:27:20.080Z,62.45
2022-09-13T01:39:20.569Z,58.83
2022-09-13T01:51:21.004Z,58.99
2022-09-13T02:03:21.485Z,58.21
2022-09-13T02:15:21.882Z,60.14
2022-09-13T02:27:22.374Z,59.44
2022-09-13T02:39:22.795Z,58.10
2022-09-13T02:51:23.288Z,59.15
2022-09-13T03:03:23.757Z,58.35
2022-09-13T03:15:24.220Z,58.82
2022-09-13T03:27:24.666Z,58.51
2022-09-13T03:39:25.125Z,58.09
2022-09-13T03:51:25.558Z,60.83
2022-09-13T04:03:25.991Z,58.59
2022-09-13T04:15:26.405Z,60.68
2022-09-13T04:27:26.925Z,58.59
2022-09-13T04:39:27.375Z,58.36
2022-09-13T04:51:27.833Z,59.34
2022-09-13T05:03:28.281Z,59.23
2022-09-13T05:15:28.738Z,58.95
2022-09-13T05:27:29.179Z,59.34
2022-09-13T05:39:39.785Z,61.92
2022-09-13T05:51:30.051Z,63.63
2022-09-13T06:03:30.569Z,59.93
2022-09-13T06:15:30.936Z,59.43
2022-09-13T06:27:31.475Z,59.11
2022-09-13T06:39:31.925Z,59.28
2022-09-13T06:51:32.435Z,63.10
2022-09-13T07:03:32.770Z,62.79
2022-09-13T07:15:33.339Z,64.49
2022-09-13T07:27:33.714Z,61.55
2022-09-13T07:39:34.201Z,56.39
2022-09-13T07:51:34.642Z,54.09
2022-09-13T08:03:35.058Z,48.69
2022-09-13T08:15:35.557Z,49.21
2022-09-13T08:27:35.996Z,46.71
2022-09-13T08:39:36.437Z,46.13
2022-09-13T08:51:36.885Z,42.51
2022-09-13T09:03:37.330Z,43.00
2022-09-13T09:15:37.853Z,43.32
2022-09-13T09:27:38.264Z,42.10
2022-09-13T09:39:38.713Z,39.05
2022-09-13T09:51:39.173Z,42.49
2022-09-13T10:03:39.641Z,39.44
2022-09-13T10:15:40.083Z,37.67
2022-09-13T10:27:40.495Z,36.31
2022-09-13T10:39:41.016Z,39.05
2022-09-13T10:51:41.476Z,34.39
2022-09-13T11:03:41.937Z,39.73
2022-09-13T11:15:42.368Z,34.41
2022-09-13T11:27:42.803Z,33.71
2022-09-13T11:39:43.284Z,31.62
2022-09-13T11:51:43.728Z,39.07
2022-09-13T12:03:44.161Z,35.57
2022-09-13T12:15:44.602Z,36.91
2022-09-13T12:27:45.095Z,35.80
2022-09-13T12:39:45.573Z,37.17
2022-09-13T12:51:46.024Z,37.14
2022-09-13T13:03:46.569Z,37.26
2022-09-13T13:15:50.071Z,36.84
2022-09-13T13:27:48.619Z,36.47
2022-09-13T13:39:47.870Z,36.56
2022-09-13T13:51:48.265Z,37.82
2022-09-13T14:03:48.821Z,39.07
2022-09-13T14:15:49.241Z,38.63
2022-09-13T14:27:49.631Z,38.02
2022-09-13T14:39:50.133Z,38.03
2022-09-13T14:51:50.594Z,38.86
2022-09-13T15:03:51.021Z,37.46
2022-09-13T15:15:51.580Z,39.49
2022-09-13T15:27:51.949Z,43.54
2022-09-13T15:39:52.433Z,45.39
2022-09-13T15:51:52.858Z,42.31
2022-09-13T16:03:53.307Z,46.66
2022-09-13T16:27:54.253Z,49.41
2022-09-13T16:39:54.729Z,51.67
2022-09-13T16:51:55.145Z,51.73
2022-09-13T17:03:55.591Z,51.30
2022-09-13T17:15:56.695Z,53.84
2022-09-13T17:27:56.473Z,55.14
2022-09-13T17:39:56.993Z,55.92
2022-09-13T17:51:57.415Z,56.21
2022-09-13T18:03:57.873Z,56.68
2022-09-13T18:15:58.340Z,58.53
2022-09-13T18:27:58.807Z,57.07
2022-09-13T18:39:59.268Z,59.19
2022-09-13T18:51:59.738Z,59.76
2022-09-13T19:04:00.141Z,58.98
2022-09-13T19:16:00.629Z,57.54
2022-09-13T19:28:01.024Z,60.08
2022-09-13T19:40:01.550Z,61.48
2022-09-13T19:52:01.927Z,60.23
2022-09-13T20:04:02.404Z,61.05
2022-09-13T20:16:02.916Z,60.38
2022-09-13T20:28:03.341Z,60.65
2022-09-13T20:40:03.816Z,60.62
2022-09-13T20:52:04.218Z,59.86
2022-09-13T21:04:04.657Z,60.78
2022-09-13T21:16:05.169Z,60.81
2022-09-13T21:28:05.592Z,61.74
2022-09-13T21:40:06.082Z,63.37
2022-09-13T21:52:06.466Z,60.37
2022-09-13T22:04:06.967Z,62.94
2022-09-13T22:16:07.409Z,61.42
2022-09-13T22:28:07.866Z,62.99
2022-09-13T22:40:08.347Z,61.64
2022-09-13T22:52:08.794Z,61.32
2022-09-13T23:04:09.209Z,61.76
2022-09-13T23:16:09.750Z,61.21
2022-09-13T23:28:10.130Z,62.30
2022-09-13T23:40:10.638Z,63.64
2022-09-13T23:52:11.049Z,64.82
